sensor_id;sensor_type;location;lat;lon;timestamp;temperature;humidity
652;DHT22;310;48.490;9.200;2022-10-16T00:01:20;20.40;48.90
652;DHT22;310;48.490;9.200;2022-10-16T00:03:46;20.60;48.40
652;DHT22;310;48.490;9.200;2022-10-16T00:06:12;20.60;48.20
652;DHT22;310;48.490;9.200;2022-10-16T00:08:40;20.60;49.00
652;DHT22;310;48.490;9.200;2022-10-16T00:11:12;20.50;48.40
652;DHT22;310;48.490;9.200;2022-10-16T00:13:39;20.50;48.90
652;DHT22;310;48.490;9.200;2022-10-16T00:16:05;20.40;49.50
652;DHT22;310;48.490;9.200;2022-10-16T00:18:31;20.30;49.70
652;DHT22;310;48.490;9.200;2022-10-16T00:21:24;20.10;49.70
652;DHT22;310;48.490;9.200;2022-10-16T00:23:52;20.10;50.10
652;DHT22;310;48.490;9.200;2022-10-16T00:26:18;20.20;49.70
652;DHT22;310;48.490;9.200;2022-10-16T00:28:51;20.20;48.80
652;DHT22;310;48.490;9.200;2022-10-16T00:31:19;20.20;49.70
652;DHT22;310;48.490;9.200;2022-10-16T00:33:45;20.10;50.00
652;DHT22;310;48.490;9.200;2022-10-16T00:36:13;20.30;48.10
652;DHT22;310;48.490;9.200;2022-10-16T00:38:40;20.00;48.90
652;DHT22;310;48.490;9.200;2022-10-16T00:41:07;20.00;49.40
652;DHT22;310;48.490;9.200;2022-10-16T00:43:41;20.00;49.00
652;DHT22;310;48.490;9.200;2022-10-16T00:46:20;20.00;49.50
652;DHT22;310;48.490;9.200;2022-10-16T00:49:16;19.70;50.40
652;DHT22;310;48.490;9.200;2022-10-16T00:51:47;19.90;50.00
652;DHT22;310;48.490;9.200;2022-10-16T00:54:17;19.90;49.40
652;DHT22;310;48.490;9.200;2022-10-16T00:56:45;20.00;48.90
652;DHT22;310;48.490;9.200;2022-10-16T00:59:27;20.00;48.90
652;DHT22;310;48.490;9.200;2022-10-16T01:01:54;20.00;49.10
652;DHT22;310;48.490;9.200;2022-10-16T01:04:21;20.00;49.30
652;DHT22;310;48.490;9.200;2022-10-16T01:07:03;20.10;49.10
652;DHT22;310;48.490;9.200;2022-10-16T01:12:36;20.30;48.90
652;DHT22;310;48.490;9.200;2022-10-16T01:18:00;20.40;48.80
652;DHT22;310;48.490;9.200;2022-10-16T01:20:31;20.30;49.50
652;DHT22;310;48.490;9.200;2022-10-16T01:23:04;20.20;49.30
652;DHT22;310;48.490;9.200;2022-10-16T01:28:09;19.80;49.80
652;DHT22;310;48.490;9.200;2022-10-16T01:30:37;19.80;51.20
652;DHT22;310;48.490;9.200;2022-10-16T01:35:43;19.90;50.70
652;DHT22;310;48.490;9.200;2022-10-16T01:38:12;19.90;50.70
652;DHT22;310;48.490;9.200;2022-10-16T01:40:45;19.80;50.60
652;DHT22;310;48.490;9.200;2022-10-16T01:43:15;19.80;51.30
652;DHT22;310;48.490;9.200;2022-10-16T01:45:44;19.70;51.60
652;DHT22;310;48.490;9.200;2022-10-16T01:48:13;19.80;51.00
652;DHT22;310;48.490;9.200;2022-10-16T01:50:41;19.80;51.50
652;DHT22;310;48.490;9.200;2022-10-16T01:53:10;19.80;51.80
652;DHT22;310;48.490;9.200;2022-10-16T01:55:40;19.80;51.50
652;DHT22;310;48.490;9.200;2022-10-16T01:58:11;19.70;52.60
652;DHT22;310;48.490;9.200;2022-10-16T02:00:38;19.70;52.20
652;DHT22;310;48.490;9.200;2022-10-16T02:03:06;19.60;52.60
652;DHT22;310;48.490;9.200;2022-10-16T02:05:39;19.70;52.60
652;DHT22;310;48.490;9.200;2022-10-16T02:08:06;19.60;53.00
652;DHT22;310;48.490;9.200;2022-10-16T02:10:32;19.60;53.60
652;DHT22;310;48.490;9.200;2022-10-16T02:15:27;19.70;52.80
652;DHT22;310;48.490;9.200;2022-10-16T02:17:53;19.70;52.90
652;DHT22;310;48.490;9.200;2022-10-16T02:20:28;19.70;53.10
652;DHT22;310;48.490;9.200;2022-10-16T02:22:55;19.70;52.80
652;DHT22;310;48.490;9.200;2022-10-16T02:25:31;19.70;52.90
652;DHT22;310;48.490;9.200;2022-10-16T02:28:05;19.80;52.80
652;DHT22;310;48.490;9.200;2022-10-16T02:30:45;19.70;52.80
652;DHT22;310;48.490;9.200;2022-10-16T02:33:14;19.70;52.30
652;DHT22;310;48.490;9.200;2022-10-16T02:35:41;19.70;52.90
652;DHT22;310;48.490;9.200;2022-10-16T02:38:08;22.40;56.60
652;DHT22;310;48.490;9.200;2022-10-16T02:40:35;19.20;55.50
652;DHT22;310;48.490;9.200;2022-10-16T02:43:03;18.90;56.30
652;DHT22;310;48.490;9.200;2022-10-16T02:45:29;18.90;56.90
652;DHT22;310;48.490;9.200;2022-10-16T02:47:54;19.10;56.40
652;DHT22;310;48.490;9.200;2022-10-16T02:50:20;19.40;55.20
652;DHT22;310;48.490;9.200;2022-10-16T02:52:46;19.50;54.30
652;DHT22;310;48.490;9.200;2022-10-16T02:55:12;19.60;53.70
652;DHT22;310;48.490;9.200;2022-10-16T02:57:37;19.50;53.70
652;DHT22;310;48.490;9.200;2022-10-16T03:00:09;19.40;54.30
652;DHT22;310;48.490;9.200;2022-10-16T03:02:35;19.30;54.80
652;DHT22;310;48.490;9.200;2022-10-16T03:05:00;19.30;54.80
652;DHT22;310;48.490;9.200;2022-10-16T03:07:26;19.50;53.80
652;DHT22;310;48.490;9.200;2022-10-16T03:09:52;19.50;53.60
652;DHT22;310;48.490;9.200;2022-10-16T03:12:17;19.40;53.90
652;DHT22;310;48.490;9.200;2022-10-16T03:14:43;19.30;54.00
652;DHT22;310;48.490;9.200;2022-10-16T03:17:08;19.10;55.10
652;DHT22;310;48.490;9.200;2022-10-16T03:19:34;19.00;56.20
652;DHT22;310;48.490;9.200;2022-10-16T03:22:01;18.90;56.90
652;DHT22;310;48.490;9.200;2022-10-16T03:24:26;18.60;58.00
652;DHT22;310;48.490;9.200;2022-10-16T03:26:52;18.60;58.50
652;DHT22;310;48.490;9.200;2022-10-16T03:29:17;19.00;56.90
652;DHT22;310;48.490;9.200;2022-10-16T03:31:43;19.20;55.70
652;DHT22;310;48.490;9.200;2022-10-16T03:34:09;19.30;55.20
652;DHT22;310;48.490;9.200;2022-10-16T03:36:34;19.30;54.50
652;DHT22;310;48.490;9.200;2022-10-16T03:39:00;19.40;54.40
652;DHT22;310;48.490;9.200;2022-10-16T03:41:25;19.40;54.50
652;DHT22;310;48.490;9.200;2022-10-16T03:43:51;19.30;54.80
652;DHT22;310;48.490;9.200;2022-10-16T03:46:17;19.40;54.50
652;DHT22;310;48.490;9.200;2022-10-16T03:48:42;19.30;54.60
652;DHT22;310;48.490;9.200;2022-10-16T03:51:08;19.30;54.50
652;DHT22;310;48.490;9.200;2022-10-16T03:53:33;19.40;55.30
652;DHT22;310;48.490;9.200;2022-10-16T03:55:59;19.30;54.80
652;DHT22;310;48.490;9.200;2022-10-16T03:58:25;19.40;54.60
652;DHT22;310;48.490;9.200;2022-10-16T04:00:51;19.40;54.00
652;DHT22;310;48.490;9.200;2022-10-16T04:03:16;19.10;55.90
652;DHT22;310;48.490;9.200;2022-10-16T04:05:44;19.10;56.40
652;DHT22;310;48.490;9.200;2022-10-16T04:08:09;19.20;55.70
652;DHT22;310;48.490;9.200;2022-10-16T04:10:35;19.30;55.20
652;DHT22;310;48.490;9.200;2022-10-16T04:13:00;19.40;54.10
652;DHT22;310;48.490;9.200;2022-10-16T04:15:26;19.40;54.10
652;DHT22;310;48.490;9.200;2022-10-16T04:17:52;19.40;54.30
652;DHT22;310;48.490;9.200;2022-10-16T04:20:18;19.30;54.00
652;DHT22;310;48.490;9.200;2022-10-16T04:22:43;19.40;54.30
652;DHT22;310;48.490;9.200;2022-10-16T04:25:09;19.20;54.70
652;DHT22;310;48.490;9.200;2022-10-16T04:27:36;19.20;55.50
652;DHT22;310;48.490;9.200;2022-10-16T04:30:02;19.40;54.10
652;DHT22;310;48.490;9.200;2022-10-16T04:32:27;19.30;55.00
652;DHT22;310;48.490;9.200;2022-10-16T04:34:53;19.30;54.90
652;DHT22;310;48.490;9.200;2022-10-16T04:37:22;19.30;54.40
652;DHT22;310;48.490;9.200;2022-10-16T04:39:48;19.20;55.00
652;DHT22;310;48.490;9.200;2022-10-16T04:42:14;19.30;55.30
652;DHT22;310;48.490;9.200;2022-10-16T04:44:39;19.20;55.00
652;DHT22;310;48.490;9.200;2022-10-16T04:47:05;19.00;56.00
652;DHT22;310;48.490;9.200;2022-10-16T04:49:30;19.00;56.50
652;DHT22;310;48.490;9.200;2022-10-16T04:51:57;19.00;56.30
652;DHT22;310;48.490;9.200;2022-10-16T04:54:22;19.20;55.20
652;DHT22;310;48.490;9.200;2022-10-16T04:56:48;19.10;55.40
652;DHT22;310;48.490;9.200;2022-10-16T04:59:16;19.10;55.50
652;DHT22;310;48.490;9.200;2022-10-16T05:01:42;19.20;55.60
652;DHT22;310;48.490;9.200;2022-10-16T05:04:09;19.30;55.10
652;DHT22;310;48.490;9.200;2022-10-16T05:06:34;19.30;55.10
652;DHT22;310;48.490;9.200;2022-10-16T05:09:00;19.30;54.90
652;DHT22;310;48.490;9.200;2022-10-16T05:11:25;19.20;55.30
652;DHT22;310;48.490;9.200;2022-10-16T05:13:51;19.30;54.60
652;DHT22;310;48.490;9.200;2022-10-16T05:16:17;19.30;54.80
652;DHT22;310;48.490;9.200;2022-10-16T05:18:42;19.20;54.90
652;DHT22;310;48.490;9.200;2022-10-16T05:21:08;19.20;55.00
652;DHT22;310;48.490;9.200;2022-10-16T05:23:34;19.00;55.40
652;DHT22;310;48.490;9.200;2022-10-16T05:25:59;19.10;55.10
652;DHT22;310;48.490;9.200;2022-10-16T05:28:27;19.00;55.20
652;DHT22;310;48.490;9.200;2022-10-16T05:30:53;18.40;58.60
652;DHT22;310;48.490;9.200;2022-10-16T05:33:23;18.20;60.80
652;DHT22;310;48.490;9.200;2022-10-16T05:35:49;18.50;59.40
652;DHT22;310;48.490;9.200;2022-10-16T05:38:17;18.30;59.40
652;DHT22;310;48.490;9.200;2022-10-16T05:40:43;18.40;59.60
652;DHT22;310;48.490;9.200;2022-10-16T05:43:15;18.60;58.30
652;DHT22;310;48.490;9.200;2022-10-16T05:45:40;18.30;59.10
652;DHT22;310;48.490;9.200;2022-10-16T05:48:06;18.60;57.70
652;DHT22;310;48.490;9.200;2022-10-16T05:50:32;18.70;57.30
652;DHT22;310;48.490;9.200;2022-10-16T05:52:57;19.00;55.90
652;DHT22;310;48.490;9.200;2022-10-16T05:55:23;18.90;56.30
652;DHT22;310;48.490;9.200;2022-10-16T05:57:48;19.10;55.30
652;DHT22;310;48.490;9.200;2022-10-16T06:00:14;19.10;55.10
652;DHT22;310;48.490;9.200;2022-10-16T06:02:40;19.00;55.60
652;DHT22;310;48.490;9.200;2022-10-16T06:05:05;18.70;56.70
652;DHT22;310;48.490;9.200;2022-10-16T06:07:34;18.60;58.00
652;DHT22;310;48.490;9.200;2022-10-16T06:10:01;18.70;57.20
652;DHT22;310;48.490;9.200;2022-10-16T06:12:26;18.80;56.80
652;DHT22;310;48.490;9.200;2022-10-16T06:14:52;18.90;56.90
652;DHT22;310;48.490;9.200;2022-10-16T06:17:18;19.00;56.90
652;DHT22;310;48.490;9.200;2022-10-16T06:19:43;18.90;56.90
652;DHT22;310;48.490;9.200;2022-10-16T06:22:09;19.00;56.40
652;DHT22;310;48.490;9.200;2022-10-16T06:24:35;19.10;56.30
652;DHT22;310;48.490;9.200;2022-10-16T06:27:00;19.30;55.00
652;DHT22;310;48.490;9.200;2022-10-16T06:29:26;19.20;55.70
652;DHT22;310;48.490;9.200;2022-10-16T06:31:52;19.30;55.50
652;DHT22;310;48.490;9.200;2022-10-16T06:34:18;18.90;56.90
652;DHT22;310;48.490;9.200;2022-10-16T06:36:44;19.00;57.00
652;DHT22;310;48.490;9.200;2022-10-16T06:39:09;19.10;57.00
652;DHT22;310;48.490;9.200;2022-10-16T06:41:35;19.20;55.90
652;DHT22;310;48.490;9.200;2022-10-16T06:44:01;19.30;56.00
652;DHT22;310;48.490;9.200;2022-10-16T06:46:27;19.30;55.70
652;DHT22;310;48.490;9.200;2022-10-16T06:48:53;19.10;56.90
652;DHT22;310;48.490;9.200;2022-10-16T06:51:21;19.30;55.50
652;DHT22;310;48.490;9.200;2022-10-16T06:53:52;19.50;55.80
652;DHT22;310;48.490;9.200;2022-10-16T06:56:25;19.60;55.00
652;DHT22;310;48.490;9.200;2022-10-16T06:58:52;19.70;54.70
652;DHT22;310;48.490;9.200;2022-10-16T07:01:19;19.80;55.30
652;DHT22;310;48.490;9.200;2022-10-16T07:03:46;19.70;56.30
652;DHT22;310;48.490;9.200;2022-10-16T07:06:14;19.80;55.70
652;DHT22;310;48.490;9.200;2022-10-16T07:08:42;19.90;55.40
652;DHT22;310;48.490;9.200;2022-10-16T07:11:10;19.90;55.90
652;DHT22;310;48.490;9.200;2022-10-16T07:13:37;19.80;55.70
652;DHT22;310;48.490;9.200;2022-10-16T07:18:35;19.30;58.40
652;DHT22;310;48.490;9.200;2022-10-16T07:21:11;19.60;57.50
652;DHT22;310;48.490;9.200;2022-10-16T07:23:38;19.70;56.00
652;DHT22;310;48.490;9.200;2022-10-16T07:26:04;19.70;56.10
652;DHT22;310;48.490;9.200;2022-10-16T07:28:31;19.80;56.00
652;DHT22;310;48.490;9.200;2022-10-16T07:31:01;20.00;54.90
652;DHT22;310;48.490;9.200;2022-10-16T07:33:27;19.90;54.50
652;DHT22;310;48.490;9.200;2022-10-16T07:35:54;19.90;55.50
652;DHT22;310;48.490;9.200;2022-10-16T07:38:21;19.90;55.40
652;DHT22;310;48.490;9.200;2022-10-16T07:40:47;20.10;55.00
652;DHT22;310;48.490;9.200;2022-10-16T07:43:13;20.30;54.00
652;DHT22;310;48.490;9.200;2022-10-16T07:45:47;20.50;54.10
652;DHT22;310;48.490;9.200;2022-10-16T07:48:14;20.60;54.00
652;DHT22;310;48.490;9.200;2022-10-16T07:50:40;20.70;52.10
652;DHT22;310;48.490;9.200;2022-10-16T07:53:07;20.60;50.60
652;DHT22;310;48.490;9.200;2022-10-16T07:55:32;20.40;52.20
652;DHT22;310;48.490;9.200;2022-10-16T07:57:58;20.50;52.00
652;DHT22;310;48.490;9.200;2022-10-16T08:00:23;20.90;50.70
652;DHT22;310;48.490;9.200;2022-10-16T08:02:49;21.10;49.00
652;DHT22;310;48.490;9.200;2022-10-16T08:05:15;21.30;48.20
652;DHT22;310;48.490;9.200;2022-10-16T08:07:40;21.50;47.20
652;DHT22;310;48.490;9.200;2022-10-16T08:10:06;21.50;46.50
652;DHT22;310;48.490;9.200;2022-10-16T08:12:32;21.60;46.40
652;DHT22;310;48.490;9.200;2022-10-16T08:14:57;21.80;45.60
652;DHT22;310;48.490;9.200;2022-10-16T08:17:23;21.60;45.80
652;DHT22;310;48.490;9.200;2022-10-16T08:19:48;21.20;48.10
652;DHT22;310;48.490;9.200;2022-10-16T08:22:14;21.30;49.10
652;DHT22;310;48.490;9.200;2022-10-16T08:24:40;21.40;48.50
652;DHT22;310;48.490;9.200;2022-10-16T08:27:06;21.60;48.30
652;DHT22;310;48.490;9.200;2022-10-16T08:29:32;21.10;49.30
652;DHT22;310;48.490;9.200;2022-10-16T08:31:58;20.50;52.00
652;DHT22;310;48.490;9.200;2022-10-16T08:34:23;20.50;54.50
652;DHT22;310;48.490;9.200;2022-10-16T08:36:49;20.70;52.80
652;DHT22;310;48.490;9.200;2022-10-16T08:39:15;20.50;53.90
652;DHT22;310;48.490;9.200;2022-10-16T08:49:26;21.80;48.80
652;DHT22;310;48.490;9.200;2022-10-16T08:51:52;22.00;47.30
652;DHT22;310;48.490;9.200;2022-10-16T08:54:34;22.30;47.50
652;DHT22;310;48.490;9.200;2022-10-16T08:57:15;22.80;46.40
652;DHT22;310;48.490;9.200;2022-10-16T08:59:42;23.00;45.40
652;DHT22;310;48.490;9.200;2022-10-16T09:02:38;23.10;44.50
652;DHT22;310;48.490;9.200;2022-10-16T09:08:03;22.80;44.90
652;DHT22;310;48.490;9.200;2022-10-16T09:10:52;23.00;45.70
652;DHT22;310;48.490;9.200;2022-10-16T09:16:21;23.40;43.20
652;DHT22;310;48.490;9.200;2022-10-16T09:19:04;23.40;42.30
652;DHT22;310;48.490;9.200;2022-10-16T09:21:41;23.40;42.50
652;DHT22;310;48.490;9.200;2022-10-16T09:24:13;23.60;42.30
652;DHT22;310;48.490;9.200;2022-10-16T09:26:39;23.20;43.20
652;DHT22;310;48.490;9.200;2022-10-16T09:29:05;22.70;44.20
652;DHT22;310;48.490;9.200;2022-10-16T09:31:30;22.70;44.20
652;DHT22;310;48.490;9.200;2022-10-16T09:34:00;22.60;45.00
652;DHT22;310;48.490;9.200;2022-10-16T09:36:42;22.80;45.50
652;DHT22;310;48.490;9.200;2022-10-16T09:39:11;23.00;43.20
652;DHT22;310;48.490;9.200;2022-10-16T09:41:40;23.10;44.00
652;DHT22;310;48.490;9.200;2022-10-16T09:44:22;23.50;44.20
652;DHT22;310;48.490;9.200;2022-10-16T09:47:42;23.80;39.40
652;DHT22;310;48.490;9.200;2022-10-16T09:50:13;23.90;41.20
652;DHT22;310;48.490;9.200;2022-10-16T09:52:44;24.10;40.90
652;DHT22;310;48.490;9.200;2022-10-16T09:55:15;24.20;38.50
652;DHT22;310;48.490;9.200;2022-10-16T09:57:51;24.40;37.70
652;DHT22;310;48.490;9.200;2022-10-16T10:00:18;24.40;37.90
652;DHT22;310;48.490;9.200;2022-10-16T10:02:44;24.50;38.40
652;DHT22;310;48.490;9.200;2022-10-16T10:05:22;24.50;37.20
652;DHT22;310;48.490;9.200;2022-10-16T10:08:01;24.50;36.60
652;DHT22;310;48.490;9.200;2022-10-16T10:10:33;24.60;37.30
652;DHT22;310;48.490;9.200;2022-10-16T10:12:59;24.70;36.40
652;DHT22;310;48.490;9.200;2022-10-16T10:15:29;24.60;36.30
652;DHT22;310;48.490;9.200;2022-10-16T10:17:58;24.70;36.80
652;DHT22;310;48.490;9.200;2022-10-16T10:20:28;24.60;36.50
652;DHT22;310;48.490;9.200;2022-10-16T10:22:55;24.50;36.40
652;DHT22;310;48.490;9.200;2022-10-16T10:28:23;24.60;36.50
652;DHT22;310;48.490;9.200;2022-10-16T10:31:09;24.90;37.10
652;DHT22;310;48.490;9.200;2022-10-16T10:33:47;25.50;34.60
652;DHT22;310;48.490;9.200;2022-10-16T10:39:15;26.70;31.20
652;DHT22;310;48.490;9.200;2022-10-16T10:47:36;27.50;28.10
652;DHT22;310;48.490;9.200;2022-10-16T10:53:30;27.50;26.20
652;DHT22;310;48.490;9.200;2022-10-16T10:56:16;27.40;28.60
652;DHT22;310;48.490;9.200;2022-10-16T11:01:24;27.00;24.80
652;DHT22;310;48.490;9.200;2022-10-16T11:06:57;27.00;25.80
652;DHT22;310;48.490;9.200;2022-10-16T11:09:33;28.10;27.50
652;DHT22;310;48.490;9.200;2022-10-16T11:12:17;26.20;27.00
652;DHT22;310;48.490;9.200;2022-10-16T11:17:32;26.60;24.60
652;DHT22;310;48.490;9.200;2022-10-16T11:22:51;26.20;24.20
652;DHT22;310;48.490;9.200;2022-10-16T11:25:22;26.70;24.20
652;DHT22;310;48.490;9.200;2022-10-16T11:27:54;25.90;24.90
652;DHT22;310;48.490;9.200;2022-10-16T11:30:25;25.60;25.70
652;DHT22;310;48.490;9.200;2022-10-16T11:35:59;26.30;24.40
652;DHT22;310;48.490;9.200;2022-10-16T11:41:51;26.70;23.70
652;DHT22;310;48.490;9.200;2022-10-16T11:44:33;26.70;24.30
652;DHT22;310;48.490;9.200;2022-10-16T11:47:23;27.10;23.90
652;DHT22;310;48.490;9.200;2022-10-16T11:55:39;26.50;25.30
652;DHT22;310;48.490;9.200;2022-10-16T11:58:16;26.30;25.70
652;DHT22;310;48.490;9.200;2022-10-16T12:01:13;27.40;24.20
652;DHT22;310;48.490;9.200;2022-10-16T12:06:22;27.70;22.90
652;DHT22;310;48.490;9.200;2022-10-16T12:08:50;27.60;22.70
652;DHT22;310;48.490;9.200;2022-10-16T12:16:50;27.70;23.00
652;DHT22;310;48.490;9.200;2022-10-16T12:19:17;28.20;23.30
652;DHT22;310;48.490;9.200;2022-10-16T12:21:44;27.10;23.00
652;DHT22;310;48.490;9.200;2022-10-16T12:24:35;26.80;24.80
652;DHT22;310;48.490;9.200;2022-10-16T12:27:04;27.40;25.00
652;DHT22;310;48.490;9.200;2022-10-16T12:29:41;27.30;24.80
652;DHT22;310;48.490;9.200;2022-10-16T12:32:31;27.40;24.10
652;DHT22;310;48.490;9.200;2022-10-16T12:34:58;26.80;25.00
652;DHT22;310;48.490;9.200;2022-10-16T12:39:55;26.80;24.60
652;DHT22;310;48.490;9.200;2022-10-16T12:44:54;26.20;25.70
652;DHT22;310;48.490;9.200;2022-10-16T12:47:50;26.40;25.50
652;DHT22;310;48.490;9.200;2022-10-16T12:50:39;26.80;24.90
652;DHT22;310;48.490;9.200;2022-10-16T12:53:21;27.00;24.90
652;DHT22;310;48.490;9.200;2022-10-16T13:04:40;27.20;24.80
652;DHT22;310;48.490;9.200;2022-10-16T13:12:54;28.50;23.20
652;DHT22;310;48.490;9.200;2022-10-16T13:15:58;28.60;22.10
652;DHT22;310;48.490;9.200;2022-10-16T13:27:03;27.80;23.10
652;DHT22;310;48.490;9.200;2022-10-16T13:29:33;27.30;24.00
652;DHT22;310;48.490;9.200;2022-10-16T13:32:01;27.10;24.40
652;DHT22;310;48.490;9.200;2022-10-16T13:34:28;26.80;25.10
652;DHT22;310;48.490;9.200;2022-10-16T13:36:54;27.40;24.50
652;DHT22;310;48.490;9.200;2022-10-16T13:39:26;27.90;23.80
652;DHT22;310;48.490;9.200;2022-10-16T13:42:10;27.50;24.10
652;DHT22;310;48.490;9.200;2022-10-16T13:44:46;27.40;25.30
652;DHT22;310;48.490;9.200;2022-10-16T13:49:41;28.00;26.30
652;DHT22;310;48.490;9.200;2022-10-16T13:52:17;28.70;25.70
652;DHT22;310;48.490;9.200;2022-10-16T13:54:43;29.20;23.70
652;DHT22;310;48.490;9.200;2022-10-16T13:57:13;28.80;23.00
652;DHT22;310;48.490;9.200;2022-10-16T13:59:39;29.30;24.80
652;DHT22;310;48.490;9.200;2022-10-16T14:02:24;29.60;26.60
652;DHT22;310;48.490;9.200;2022-10-16T14:04:50;29.20;22.30
652;DHT22;310;48.490;9.200;2022-10-16T14:07:28;29.20;24.20
652;DHT22;310;48.490;9.200;2022-10-16T14:09:55;29.00;25.60
652;DHT22;310;48.490;9.200;2022-10-16T14:12:21;28.90;23.60
652;DHT22;310;48.490;9.200;2022-10-16T14:14:49;29.10;25.30
652;DHT22;310;48.490;9.200;2022-10-16T14:19:48;29.10;26.30
652;DHT22;310;48.490;9.200;2022-10-16T14:22:41;28.90;22.60
652;DHT22;310;48.490;9.200;2022-10-16T14:25:27;28.80;23.40
652;DHT22;310;48.490;9.200;2022-10-16T14:28:25;28.50;25.60
652;DHT22;310;48.490;9.200;2022-10-16T14:30:58;27.60;24.20
652;DHT22;310;48.490;9.200;2022-10-16T14:36:15;27.60;28.30
652;DHT22;310;48.490;9.200;2022-10-16T14:39:04;27.70;27.90
652;DHT22;310;48.490;9.200;2022-10-16T14:41:31;27.60;29.70
652;DHT22;310;48.490;9.200;2022-10-16T14:44:06;27.50;29.30
652;DHT22;310;48.490;9.200;2022-10-16T14:46:38;29.80;31.90
652;DHT22;310;48.490;9.200;2022-10-16T14:51:41;27.40;31.00
652;DHT22;310;48.490;9.200;2022-10-16T14:54:09;27.20;30.20
652;DHT22;310;48.490;9.200;2022-10-16T14:56:47;27.20;30.00
652;DHT22;310;48.490;9.200;2022-10-16T14:59:20;27.20;30.80
652;DHT22;310;48.490;9.200;2022-10-16T15:01:47;27.20;30.50
652;DHT22;310;48.490;9.200;2022-10-16T15:04:13;27.10;29.80
652;DHT22;310;48.490;9.200;2022-10-16T15:06:39;27.00;30.00
652;DHT22;310;48.490;9.200;2022-10-16T15:09:05;27.00;31.00
652;DHT22;310;48.490;9.200;2022-10-16T15:11:32;26.80;32.20
652;DHT22;310;48.490;9.200;2022-10-16T15:13:58;26.70;31.90
652;DHT22;310;48.490;9.200;2022-10-16T15:16:24;26.60;32.00
652;DHT22;310;48.490;9.200;2022-10-16T15:18:50;26.50;31.20
652;DHT22;310;48.490;9.200;2022-10-16T15:21:33;26.20;32.60
652;DHT22;310;48.490;9.200;2022-10-16T15:24:00;26.30;31.20
652;DHT22;310;48.490;9.200;2022-10-16T15:26:28;26.30;30.90
652;DHT22;310;48.490;9.200;2022-10-16T15:28:54;26.20;31.40
652;DHT22;310;48.490;9.200;2022-10-16T15:31:20;26.20;33.80
652;DHT22;310;48.490;9.200;2022-10-16T15:33:52;26.20;33.10
652;DHT22;310;48.490;9.200;2022-10-16T15:36:28;26.00;33.20
652;DHT22;310;48.490;9.200;2022-10-16T15:38:54;26.00;33.80
652;DHT22;310;48.490;9.200;2022-10-16T15:41:20;26.00;32.70
652;DHT22;310;48.490;9.200;2022-10-16T15:43:48;25.90;33.10
652;DHT22;310;48.490;9.200;2022-10-16T15:46:14;25.90;32.80
652;DHT22;310;48.490;9.200;2022-10-16T15:48:40;25.90;34.10
652;DHT22;310;48.490;9.200;2022-10-16T15:51:07;26.00;33.40
652;DHT22;310;48.490;9.200;2022-10-16T15:53:34;26.00;33.60
652;DHT22;310;48.490;9.200;2022-10-16T15:56:07;25.80;33.70
652;DHT22;310;48.490;9.200;2022-10-16T15:58:33;25.80;34.30
652;DHT22;310;48.490;9.200;2022-10-16T16:01:00;25.70;35.40
652;DHT22;310;48.490;9.200;2022-10-16T16:03:27;25.50;36.30
652;DHT22;310;48.490;9.200;2022-10-16T16:05:53;25.50;35.80
652;DHT22;310;48.490;9.200;2022-10-16T16:08:19;25.50;36.00
652;DHT22;310;48.490;9.200;2022-10-16T16:10:45;25.40;35.90
652;DHT22;310;48.490;9.200;2022-10-16T16:13:11;25.50;35.90
652;DHT22;310;48.490;9.200;2022-10-16T16:15:40;25.50;35.40
652;DHT22;310;48.490;9.200;2022-10-16T16:18:06;25.30;36.40
652;DHT22;310;48.490;9.200;2022-10-16T16:20:31;25.30;35.80
652;DHT22;310;48.490;9.200;2022-10-16T16:22:57;25.30;35.90
652;DHT22;310;48.490;9.200;2022-10-16T16:25:23;25.20;36.80
652;DHT22;310;48.490;9.200;2022-10-16T16:27:49;25.10;36.80
652;DHT22;310;48.490;9.200;2022-10-16T16:30:14;24.90;37.00
652;DHT22;310;48.490;9.200;2022-10-16T16:32:40;24.90;37.20
652;DHT22;310;48.490;9.200;2022-10-16T16:35:06;24.80;37.30
652;DHT22;310;48.490;9.200;2022-10-16T16:37:31;24.70;37.60
652;DHT22;310;48.490;9.200;2022-10-16T16:39:57;24.60;37.70
652;DHT22;310;48.490;9.200;2022-10-16T16:42:26;24.50;37.80
652;DHT22;310;48.490;9.200;2022-10-16T16:44:52;24.40;39.00
652;DHT22;310;48.490;9.200;2022-10-16T16:47:18;24.20;38.80
652;DHT22;310;48.490;9.200;2022-10-16T16:49:44;24.10;39.80
652;DHT22;310;48.490;9.200;2022-10-16T16:52:11;23.80;40.60
652;DHT22;310;48.490;9.200;2022-10-16T16:54:37;23.80;39.80
652;DHT22;310;48.490;9.200;2022-10-16T16:57:03;23.60;41.00
652;DHT22;310;48.490;9.200;2022-10-16T16:59:29;23.50;41.20
652;DHT22;310;48.490;9.200;2022-10-16T17:02:00;23.40;41.10
652;DHT22;310;48.490;9.200;2022-10-16T17:04:26;23.20;40.70
652;DHT22;310;48.490;9.200;2022-10-16T17:06:55;23.20;39.60
652;DHT22;310;48.490;9.200;2022-10-16T17:09:21;23.20;39.10
652;DHT22;310;48.490;9.200;2022-10-16T17:11:46;23.10;40.00
652;DHT22;310;48.490;9.200;2022-10-16T17:14:13;23.00;39.30
652;DHT22;310;48.490;9.200;2022-10-16T17:16:40;22.80;38.90
652;DHT22;310;48.490;9.200;2022-10-16T17:19:12;22.90;38.10
652;DHT22;310;48.490;9.200;2022-10-16T17:21:37;22.70;38.70
652;DHT22;310;48.490;9.200;2022-10-16T17:24:04;22.90;38.30
652;DHT22;310;48.490;9.200;2022-10-16T17:26:30;23.10;37.30
652;DHT22;310;48.490;9.200;2022-10-16T17:28:59;23.10;37.10
652;DHT22;310;48.490;9.200;2022-10-16T17:31:28;23.30;36.70
652;DHT22;310;48.490;9.200;2022-10-16T17:33:54;23.30;37.00
652;DHT22;310;48.490;9.200;2022-10-16T17:36:21;23.10;36.80
652;DHT22;310;48.490;9.200;2022-10-16T17:38:47;23.00;38.20
652;DHT22;310;48.490;9.200;2022-10-16T17:43:43;22.80;37.90
652;DHT22;310;48.490;9.200;2022-10-16T17:46:10;23.00;37.60
652;DHT22;310;48.490;9.200;2022-10-16T17:48:37;23.00;37.70
652;DHT22;310;48.490;9.200;2022-10-16T17:51:05;22.80;38.10
652;DHT22;310;48.490;9.200;2022-10-16T17:53:30;23.10;37.20
652;DHT22;310;48.490;9.200;2022-10-16T17:55:56;22.80;37.60
652;DHT22;310;48.490;9.200;2022-10-16T17:58:26;22.70;38.30
652;DHT22;310;48.490;9.200;2022-10-16T18:00:51;22.70;38.40
652;DHT22;310;48.490;9.200;2022-10-16T18:03:17;22.50;39.30
652;DHT22;310;48.490;9.200;2022-10-16T18:05:42;22.50;39.40
652;DHT22;310;48.490;9.200;2022-10-16T18:08:08;22.40;39.70
652;DHT22;310;48.490;9.200;2022-10-16T18:10:34;22.00;40.50
652;DHT22;310;48.490;9.200;2022-10-16T18:12:59;22.10;40.90
652;DHT22;310;48.490;9.200;2022-10-16T18:15:26;22.00;40.80
652;DHT22;310;48.490;9.200;2022-10-16T18:17:51;21.80;41.40
652;DHT22;310;48.490;9.200;2022-10-16T18:20:17;21.70;42.10
652;DHT22;310;48.490;9.200;2022-10-16T18:22:42;22.00;40.90
652;DHT22;310;48.490;9.200;2022-10-16T18:25:08;22.00;41.50
652;DHT22;310;48.490;9.200;2022-10-16T18:27:34;22.20;40.50
652;DHT22;310;48.490;9.200;2022-10-16T18:30:00;22.50;39.60
652;DHT22;310;48.490;9.200;2022-10-16T18:32:26;22.40;39.40
652;DHT22;310;48.490;9.200;2022-10-16T18:34:52;22.20;40.00
652;DHT22;310;48.490;9.200;2022-10-16T18:37:19;22.30;39.60
652;DHT22;310;48.490;9.200;2022-10-16T18:39:46;22.60;39.80
652;DHT22;310;48.490;9.200;2022-10-16T18:42:15;22.30;39.20
652;DHT22;310;48.490;9.200;2022-10-16T18:44:41;21.90;40.40